Time;durP1;ratioP1;P1;durP2;ratioP2;P2;SDS_P1;SDS_P2;PMS_P1;PMS_P2;Temp;Humidity;BMP_temperature;BMP_pressure;BME280_temperature;BME280_humidity;BME280_pressure;Samples;Min_cycle;Max_cycle;Signal;HPM_P1;HPM_P2
2021/11/23 00:01:20;;;;;;;30.70;19.05;;;;;;;;;;6068033;29;20055;-64
2021/11/23 00:04:22;;;;;;;28.85;19.55;;;;;;;;;;6082158;29;20056;-64
2021/11/23 00:07:23;;;;;;;31.10;19.75;;;;;;;;;;6073219;29;20075;-64
2021/11/23 00:10:25;;;;;;;29.92;19.95;;;;;;;;;;6066619;29;20128;-65
2021/11/23 00:13:27;;;;;;;28.65;19.38;;;;;;;;;;6083182;29;20159;-65
2021/11/23 00:16:29;;;;;;;30.95;19.48;;;;;;;;;;6063357;29;20044;-64
2021/11/23 00:19:30;;;;;;;28.88;19.58;;;;;;;;;;6081994;29;20052;-65
2021/11/23 00:22:32;;;;;;;28.27;19.73;;;;;;;;;;6070248;29;20100;-65
2021/11/23 00:25:33;;;;;;;29.70;19.70;;;;;;;;;;6076902;29;20052;-65
2021/11/23 00:28:36;;;;;;;29.42;18.83;;;;;;;;;;6082375;29;20048;-65
2021/11/23 00:31:37;;;;;;;29.70;20.50;;;;;;;;;;6060596;29;20045;-65
2021/11/23 00:34:39;;;;;;;27.30;19.77;;;;;;;;;;6076358;29;20041;-64
2021/11/23 00:37:43;;;;;;;28.40;19.25;;;;;;;;;;6071204;29;20122;-65
2021/11/23 00:40:44;;;;;;;27.42;19.55;;;;;;;;;;6075605;29;20078;-65
2021/11/23 00:43:47;;;;;;;29.23;19.83;;;;;;;;;;6087024;29;20044;-65
2021/11/23 00:46:49;;;;;;;29.15;19.80;;;;;;;;;;6068154;29;20059;-65
2021/11/23 00:49:51;;;;;;;30.10;19.83;;;;;;;;;;6089590;29;20084;-65
2021/11/23 00:52:52;;;;;;;29.98;20.73;;;;;;;;;;6085193;29;20056;-65
2021/11/23 00:55:53;;;;;;;29.77;19.63;;;;;;;;;;6091908;29;20133;-65
2021/11/23 00:58:56;;;;;;;29.55;20.50;;;;;;;;;;6093618;29;20102;-65
2021/11/23 01:01:57;;;;;;;31.25;20.48;;;;;;;;;;6076022;29;20077;-65
2021/11/23 01:04:59;;;;;;;32.33;22.00;;;;;;;;;;6090734;29;20102;-65
2021/11/23 01:08:01;;;;;;;34.30;20.50;;;;;;;;;;6077714;29;20135;-65
2021/11/23 01:11:02;;;;;;;31.77;20.13;;;;;;;;;;6075504;29;20076;-65
2021/11/23 01:14:07;;;;;;;29.80;20.98;;;;;;;;;;6088599;29;20080;-65
2021/11/23 01:17:09;;;;;;;31.60;21.75;;;;;;;;;;6075118;29;20052;-65
2021/11/23 01:20:11;;;;;;;29.85;20.08;;;;;;;;;;6077658;29;20411;-65
2021/11/23 01:23:12;;;;;;;29.40;20.92;;;;;;;;;;6084134;29;20407;-65
2021/11/23 01:26:13;;;;;;;30.83;21.58;;;;;;;;;;6075078;29;20089;-65
2021/11/23 01:29:16;;;;;;;31.73;21.23;;;;;;;;;;6091801;29;20048;-65
2021/11/23 01:32:17;;;;;;;31.98;21.35;;;;;;;;;;6071451;29;20044;-65
2021/11/23 01:35:20;;;;;;;32.00;21.13;;;;;;;;;;6086134;29;20396;-65
2021/11/23 01:38:22;;;;;;;34.28;21.60;;;;;;;;;;6087370;29;20049;-64
2021/11/23 01:41:24;;;;;;;33.05;21.52;;;;;;;;;;6077306;29;20075;-65
2021/11/23 01:44:26;;;;;;;31.08;20.85;;;;;;;;;;6081332;29;20053;-65
2021/11/23 01:47:28;;;;;;;28.70;20.48;;;;;;;;;;6071951;29;20071;-65
2021/11/23 01:50:29;;;;;;;31.83;20.80;;;;;;;;;;6076634;29;20828;-65
2021/11/23 01:53:31;;;;;;;29.83;20.83;;;;;;;;;;6092157;29;20049;-65
2021/11/23 01:56:32;;;;;;;34.55;21.17;;;;;;;;;;6075518;29;20048;-64
2021/11/23 01:59:35;;;;;;;32.22;22.08;;;;;;;;;;6088243;29;20137;-64
2021/11/23 02:02:36;;;;;;;35.83;21.52;;;;;;;;;;6074391;29;20416;-64
2021/11/23 02:05:38;;;;;;;33.38;21.55;;;;;;;;;;6073411;29;20147;-65
2021/11/23 02:08:39;;;;;;;33.13;20.73;;;;;;;;;;6082069;29;20041;-66
2021/11/23 02:11:41;;;;;;;32.95;20.65;;;;;;;;;;6082805;29;20060;-65
2021/11/23 02:14:44;;;;;;;31.60;21.13;;;;;;;;;;6089024;29;20060;-65
2021/11/23 02:17:47;;;;;;;32.67;20.63;;;;;;;;;;6074074;29;20502;-65
2021/11/23 02:20:50;;;;;;;31.70;20.20;;;;;;;;;;6074652;29;20147;-66
2021/11/23 02:23:51;;;;;;;30.70;20.27;;;;;;;;;;6086564;29;20060;-65
2021/11/23 02:26:53;;;;;;;28.05;19.45;;;;;;;;;;6075846;29;20200;-65
2021/11/23 02:29:54;;;;;;;32.28;19.52;;;;;;;;;;6091646;29;20134;-65
2021/11/23 02:32:56;;;;;;;31.50;19.98;;;;;;;;;;6070332;29;20126;-64
2021/11/23 02:36:01;;;;;;;29.05;19.40;;;;;;;;;;6079981;29;20109;-64
2021/11/23 02:39:03;;;;;;;27.30;18.83;;;;;;;;;;6086440;29;20048;-64
2021/11/23 02:42:04;;;;;;;29.50;18.35;;;;;;;;;;6070517;29;20048;-65
2021/11/23 02:45:06;;;;;;;26.92;18.30;;;;;;;;;;6088698;29;20126;-64
2021/11/23 02:48:08;;;;;;;32.33;18.63;;;;;;;;;;6073498;29;20120;-64
2021/11/23 02:51:15;;;;;;;28.42;17.88;;;;;;;;;;6074737;29;20796;-64
2021/11/23 02:54:16;;;;;;;28.10;17.88;;;;;;;;;;6089690;29;20488;-64
2021/11/23 02:57:23;;;;;;;27.30;17.55;;;;;;;;;;6073567;29;20048;-64
2021/11/23 03:00:26;;;;;;;26.95;16.55;;;;;;;;;;6077947;29;20266;-65
2021/11/23 03:03:28;;;;;;;22.42;16.02;;;;;;;;;;6076722;29;20107;-64
2021/11/23 03:06:31;;;;;;;23.05;15.35;;;;;;;;;;6069001;29;20052;-64
2021/11/23 03:09:33;;;;;;;23.40;15.68;;;;;;;;;;6078011;29;20151;-65
2021/11/23 03:12:34;;;;;;;23.42;15.88;;;;;;;;;;6072355;29;20040;-64
2021/11/23 03:15:36;;;;;;;23.05;15.68;;;;;;;;;;6070895;29;20038;-64
2021/11/23 03:18:37;;;;;;;20.90;14.88;;;;;;;;;;6073623;29;20056;-65
2021/11/23 03:21:40;;;;;;;20.73;14.77;;;;;;;;;;6072019;29;20060;-64
2021/11/23 03:24:41;;;;;;;24.38;15.07;;;;;;;;;;6081606;29;20052;-64
2021/11/23 03:27:43;;;;;;;23.05;13.95;;;;;;;;;;6074215;29;20127;-64
2021/11/23 03:30:45;;;;;;;21.50;14.05;;;;;;;;;;6067958;29;20126;-64
2021/11/23 03:33:46;;;;;;;20.20;13.48;;;;;;;;;;6086543;29;20159;-64
2021/11/23 03:36:50;;;;;;;18.73;13.98;;;;;;;;;;6070076;29;20068;-64
2021/11/23 03:39:52;;;;;;;21.77;14.13;;;;;;;;;;6084127;29;20068;-65
2021/11/23 03:42:55;;;;;;;19.70;14.30;;;;;;;;;;6075082;29;20569;-64
2021/11/23 03:45:56;;;;;;;21.70;15.05;;;;;;;;;;6068793;29;20063;-64
2021/11/23 03:48:57;;;;;;;22.23;14.35;;;;;;;;;;6075239;29;20110;-64
2021/11/23 03:52:01;;;;;;;22.20;14.60;;;;;;;;;;6080053;29;20103;-64
2021/11/23 03:55:02;;;;;;;23.30;14.93;;;;;;;;;;6078823;29;20207;-64
2021/11/23 03:58:04;;;;;;;20.50;14.90;;;;;;;;;;6073616;29;20059;-64
2021/11/23 04:01:06;;;;;;;21.80;15.23;;;;;;;;;;6066068;29;20044;-64
2021/11/23 04:04:07;;;;;;;23.33;15.65;;;;;;;;;;6084786;29;20059;-64
2021/11/23 04:07:10;;;;;;;23.02;15.23;;;;;;;;;;6073273;29;20059;-64
2021/11/23 04:10:12;;;;;;;21.38;13.15;;;;;;;;;;6074433;29;20044;-64
2021/11/23 04:13:13;;;;;;;19.02;13.15;;;;;;;;;;6089048;29;20060;-64
2021/11/23 04:16:16;;;;;;;22.80;14.23;;;;;;;;;;6072006;29;20047;-64
2021/11/23 04:19:18;;;;;;;19.88;13.13;;;;;;;;;;6084762;29;20410;-64
2021/11/23 04:22:20;;;;;;;22.75;13.80;;;;;;;;;;6076206;29;20040;-64
2021/11/23 04:25:22;;;;;;;20.95;14.05;;;;;;;;;;6080203;29;20540;-64
2021/11/23 04:28:24;;;;;;;18.15;13.20;;;;;;;;;;6086045;29;20100;-64
2021/11/23 04:31:25;;;;;;;18.17;12.25;;;;;;;;;;6083468;29;20107;-64
2021/11/23 04:34:26;;;;;;;17.67;11.77;;;;;;;;;;6091346;29;20052;-64
2021/11/23 04:37:29;;;;;;;19.23;12.05;;;;;;;;;;6078581;29;20444;-64
2021/11/23 04:40:30;;;;;;;18.08;11.10;;;;;;;;;;6081690;29;20099;-64
2021/11/23 04:43:32;;;;;;;16.80;11.05;;;;;;;;;;6095537;29;20235;-64
2021/11/23 04:46:34;;;;;;;17.75;11.18;;;;;;;;;;6068230;29;20380;-64
2021/11/23 04:49:35;;;;;;;16.85;10.90;;;;;;;;;;6095731;29;20056;-65
2021/11/23 04:52:38;;;;;;;15.23;10.77;;;;;;;;;;6081789;29;20106;-64
2021/11/23 04:55:40;;;;;;;15.82;10.57;;;;;;;;;;6091481;29;20048;-64
2021/11/23 04:58:41;;;;;;;15.25;10.55;;;;;;;;;;6102665;29;20435;-64
2021/11/23 05:01:42;;;;;;;14.88;10.43;;;;;;;;;;6084890;29;20040;-64
2021/11/23 05:04:44;;;;;;;15.07;10.57;;;;;;;;;;6102249;29;20058;-64
2021/11/23 05:07:46;;;;;;;14.38;9.90;;;;;;;;;;6085137;29;20119;-65
2021/11/23 05:10:48;;;;;;;12.98;9.40;;;;;;;;;;6099674;29;20048;-64
2021/11/23 05:13:49;;;;;;;12.57;9.05;;;;;;;;;;6099610;29;20123;-64
2021/11/23 05:16:51;;;;;;;13.27;9.05;;;;;;;;;;6085856;29;20171;-64
2021/11/23 05:19:52;;;;;;;11.55;8.95;;;;;;;;;;6100559;29;20156;-64
2021/11/23 05:22:55;;;;;;;12.30;8.95;;;;;;;;;;6081938;29;20048;-64
2021/11/23 05:25:58;;;;;;;13.52;9.63;;;;;;;;;;6085274;29;20131;-64
2021/11/23 05:29:00;;;;;;;12.93;9.55;;;;;;;;;;6090810;29;20056;-64
2021/11/23 05:32:01;;;;;;;12.93;8.15;;;;;;;;;;6075044;29;20184;-64
2021/11/23 05:35:03;;;;;;;11.45;8.38;;;;;;;;;;6076367;29;20151;-65
2021/11/23 05:38:06;;;;;;;12.43;8.32;;;;;;;;;;6082834;29;20055;-64
2021/11/23 05:41:07;;;;;;;10.65;7.72;;;;;;;;;;6074785;29;20052;-64
2021/11/23 05:44:09;;;;;;;10.63;7.75;;;;;;;;;;6082256;29;20520;-64
2021/11/23 05:47:11;;;;;;;12.43;7.78;;;;;;;;;;6067630;29;20052;-64
2021/11/23 05:50:12;;;;;;;11.30;7.80;;;;;;;;;;6075138;29;20119;-64
2021/11/23 05:53:15;;;;;;;11.82;7.90;;;;;;;;;;6079633;29;20144;-64
2021/11/23 05:56:16;;;;;;;13.18;7.88;;;;;;;;;;6075352;29;20533;-64
2021/11/23 05:59:18;;;;;;;10.95;7.32;;;;;;;;;;6085967;29;20439;-64
2021/11/23 06:02:19;;;;;;;12.15;8.13;;;;;;;;;;6065889;29;20048;-64
2021/11/23 06:05:21;;;;;;;13.93;8.10;;;;;;;;;;6079388;29;20512;-64
2021/11/23 06:08:23;;;;;;;10.35;7.57;;;;;;;;;;6082021;29;20048;-64
2021/11/23 06:11:25;;;;;;;11.27;7.90;;;;;;;;;;6076381;29;20049;-64
2021/11/23 06:14:26;;;;;;;10.50;6.63;;;;;;;;;;6082611;29;20049;-64
2021/11/23 06:17:28;;;;;;;12.48;8.20;;;;;;;;;;6072878;29;20045;-64
2021/11/23 06:20:30;;;;;;;11.45;7.30;;;;;;;;;;6074110;29;20493;-65
2021/11/23 06:23:33;;;;;;;10.75;7.65;;;;;;;;;;6085303;29;20229;-65
2021/11/23 06:26:35;;;;;;;12.03;7.03;;;;;;;;;;6077950;29;20184;-65
2021/11/23 06:29:36;;;;;;;10.32;7.10;;;;;;;;;;6081119;29;20843;-65
2021/11/23 06:32:38;;;;;;;10.63;6.95;;;;;;;;;;6070315;29;20090;-65
2021/11/23 06:35:39;;;;;;;10.88;7.22;;;;;;;;;;6060348;29;20128;-64
2021/11/23 06:38:42;;;;;;;11.18;7.97;;;;;;;;;;6079933;29;20048;-64
2021/11/23 06:41:43;;;;;;;9.93;7.00;;;;;;;;;;6075723;29;20059;-64
2021/11/23 06:44:45;;;;;;;11.55;7.93;;;;;;;;;;6084899;29;20145;-64
2021/11/23 06:47:46;;;;;;;10.77;7.45;;;;;;;;;;6071482;29;20556;-64
2021/11/23 06:50:48;;;;;;;10.77;7.28;;;;;;;;;;6073452;29;20052;-64
2021/11/23 06:53:51;;;;;;;10.68;7.75;;;;;;;;;;6090554;29;20049;-66
2021/11/23 06:56:55;;;;;;;11.02;7.40;;;;;;;;;;6079197;29;20111;-64
2021/11/23 06:59:57;;;;;;;11.88;7.50;;;;;;;;;;6093504;29;20133;-64
2021/11/23 07:02:58;;;;;;;10.32;7.93;;;;;;;;;;6068667;29;20155;-64
2021/11/23 07:06:00;;;;;;;9.02;7.13;;;;;;;;;;6082881;29;20131;-64
2021/11/23 07:09:03;;;;;;;10.63;7.15;;;;;;;;;;6092551;29;20139;-64
2021/11/23 07:12:05;;;;;;;10.25;7.38;;;;;;;;;;6081013;29;20044;-64
2021/11/23 07:15:07;;;;;;;10.70;7.55;;;;;;;;;;6088673;29;20063;-64
2021/11/23 07:18:08;;;;;;;10.48;7.13;;;;;;;;;;6075135;29;20093;-65
2021/11/23 07:21:10;;;;;;;8.43;6.68;;;;;;;;;;6074386;29;20131;-64
2021/11/23 07:24:13;;;;;;;10.73;7.60;;;;;;;;;;6083134;29;20133;-64
2021/11/23 07:27:14;;;;;;;9.73;6.97;;;;;;;;;;6071737;29;20052;-64
2021/11/23 07:30:16;;;;;;;8.90;6.25;;;;;;;;;;6074796;29;20168;-64
2021/11/23 07:33:18;;;;;;;9.10;6.25;;;;;;;;;;6074446;29;20052;-64
2021/11/23 07:36:19;;;;;;;9.80;7.40;;;;;;;;;;6070642;29;20131;-64
2021/11/23 07:39:22;;;;;;;10.15;6.57;;;;;;;;;;6066612;29;20068;-64
2021/11/23 07:42:24;;;;;;;12.73;6.63;;;;;;;;;;6071971;29;20100;-64
2021/11/23 07:45:25;;;;;;;11.55;6.53;;;;;;;;;;6072498;29;20107;-64
2021/11/23 07:48:27;;;;;;;9.38;6.68;;;;;;;;;;6074776;29;20127;-64
2021/11/23 07:51:28;;;;;;;9.82;6.50;;;;;;;;;;6070588;29;20072;-64
2021/11/23 07:54:31;;;;;;;9.90;6.75;;;;;;;;;;6082117;29;20056;-64
2021/11/23 07:57:34;;;;;;;9.48;6.70;;;;;;;;;;6072005;29;20052;-66
2021/11/23 08:00:35;;;;;;;10.02;6.65;;;;;;;;;;6071127;29;20110;-67
2021/11/23 08:03:37;;;;;;;10.55;6.55;;;;;;;;;;6072389;29;20040;-70
2021/11/23 08:06:38;;;;;;;10.45;7.07;;;;;;;;;;6087815;29;20180;-66
2021/11/23 08:09:43;;;;;;;10.10;6.53;;;;;;;;;;6097468;29;20064;-66
2021/11/23 08:12:45;;;;;;;8.90;6.70;;;;;;;;;;6073657;29;20060;-66
2021/11/23 08:15:47;;;;;;;10.73;6.28;;;;;;;;;;6075764;29;20049;-66
2021/11/23 08:18:48;;;;;;;9.07;6.40;;;;;;;;;;6083305;29;20199;-66
2021/11/23 08:21:49;;;;;;;9.98;6.07;;;;;;;;;;6083921;29;20099;-66
2021/11/23 08:24:52;;;;;;;8.80;6.32;;;;;;;;;;6080804;29;20052;-66
2021/11/23 08:27:55;;;;;;;9.20;6.60;;;;;;;;;;6075059;29;20036;-66
2021/11/23 08:30:58;;;;;;;9.65;6.35;;;;;;;;;;6070012;29;20063;-65
2021/11/23 08:34:04;;;;;;;9.38;6.15;;;;;;;;;;6084022;29;20044;-65
2021/11/23 08:37:05;;;;;;;9.00;6.40;;;;;;;;;;6070152;29;20056;-65
2021/11/23 08:40:09;;;;;;;9.38;6.57;;;;;;;;;;6080519;29;20056;-65
2021/11/23 08:43:11;;;;;;;8.70;6.45;;;;;;;;;;6075257;29;20055;-65
2021/11/23 08:46:12;;;;;;;11.20;6.82;;;;;;;;;;6065413;29;20060;-65
2021/11/23 08:49:14;;;;;;;9.82;6.60;;;;;;;;;;6084367;29;20135;-65
2021/11/23 08:52:15;;;;;;;9.80;6.65;;;;;;;;;;6076561;29;20049;-65
2021/11/23 08:55:18;;;;;;;9.48;5.97;;;;;;;;;;6078626;29;20075;-65
2021/11/23 08:58:19;;;;;;;8.20;6.20;;;;;;;;;;6091743;29;20056;-65
2021/11/23 09:01:24;;;;;;;11.88;6.97;;;;;;;;;;6078497;29;20042;-65
2021/11/23 09:04:26;;;;;;;10.85;6.90;;;;;;;;;;6078311;29;20055;-66
2021/11/23 09:07:27;;;;;;;9.25;6.40;;;;;;;;;;6071915;29;20103;-65
2021/11/23 09:10:31;;;;;;;8.95;6.50;;;;;;;;;;6086883;29;20098;-66
2021/11/23 09:13:32;;;;;;;11.32;6.18;;;;;;;;;;6082237;29;20041;-65
2021/11/23 09:16:35;;;;;;;10.20;6.30;;;;;;;;;;6074094;29;20048;-66
2021/11/23 09:19:36;;;;;;;11.35;6.47;;;;;;;;;;6082761;29;20055;-65
2021/11/23 09:22:39;;;;;;;8.05;5.63;;;;;;;;;;6041984;29;20052;-65
2021/11/23 09:25:42;;;;;;;8.57;5.30;;;;;;;;;;6071085;29;20048;-65
2021/11/23 09:28:44;;;;;;;8.68;5.97;;;;;;;;;;6080733;29;20489;-65
2021/11/23 09:31:45;;;;;;;9.65;5.75;;;;;;;;;;6068011;29;20076;-65
2021/11/23 09:34:46;;;;;;;7.45;5.32;;;;;;;;;;6077447;29;20088;-65
2021/11/23 09:37:48;;;;;;;10.27;5.65;;;;;;;;;;6074002;29;20048;-65
2021/11/23 09:40:51;;;;;;;6.80;4.65;;;;;;;;;;6079231;29;20683;-64
2021/11/23 09:43:52;;;;;;;9.65;5.38;;;;;;;;;;6094277;29;20560;-65
2021/11/23 09:46:54;;;;;;;6.53;4.60;;;;;;;;;;6080550;29;20067;-64
2021/11/23 09:49:58;;;;;;;6.65;4.63;;;;;;;;;;6099662;29;20076;-64
2021/11/23 09:52:59;;;;;;;6.80;4.68;;;;;;;;;;6084030;29;20488;-66
2021/11/23 09:56:02;;;;;;;5.43;4.30;;;;;;;;;;6072318;29;20049;-66
2021/11/23 09:59:04;;;;;;;8.48;4.07;;;;;;;;;;6093514;29;20260;-68
2021/11/23 10:02:05;;;;;;;6.65;4.53;;;;;;;;;;6078759;29;20077;-65
2021/11/23 10:05:09;;;;;;;5.65;4.45;;;;;;;;;;6091399;29;20766;-65
2021/11/23 10:08:12;;;;;;;7.68;3.80;;;;;;;;;;6091289;29;20060;-66
2021/11/23 10:11:21;;;;;;;5.82;4.18;;;;;;;;;;6079434;29;20047;-66
2021/11/23 10:14:23;;;;;;;4.65;3.65;;;;;;;;;;6084182;29;20187;-65
2021/11/23 10:17:25;;;;;;;6.47;4.00;;;;;;;;;;6077727;29;20058;-66
2021/11/23 10:20:28;;;;;;;5.45;4.00;;;;;;;;;;6082767;29;20036;-65
2021/11/23 10:23:31;;;;;;;4.57;3.72;;;;;;;;;;6089583;29;20040;-65
2021/11/23 10:26:34;;;;;;;5.03;3.50;;;;;;;;;;6080577;29;20047;-65
2021/11/23 10:29:49;;;;;;;5.65;4.07;;;;;;;;;;6097171;29;20061;-66
2021/11/23 10:32:52;;;;;;;3.25;2.75;;;;;;;;;;6070780;29;20052;-66
2021/11/23 10:35:56;;;;;;;4.15;3.10;;;;;;;;;;6071606;29;20044;-65
2021/11/23 10:38:57;;;;;;;;;;;;;;;;;;6094100;29;20052;-66
2021/11/23 10:42:01;;;;;;;4.35;3.38;;;;;;;;;;6077829;29;19923;-67
2021/11/23 10:45:03;;;;;;;4.70;3.47;;;;;;;;;;6083984;29;20075;-66
2021/11/23 10:48:05;;;;;;;4.38;3.33;;;;;;;;;;6065406;29;20076;-66
2021/11/23 10:51:08;;;;;;;4.57;3.50;;;;;;;;;;6072965;29;20504;-66
2021/11/23 10:54:12;;;;;;;4.20;3.33;;;;;;;;;;6088566;29;20492;-67
2021/11/23 10:57:15;;;;;;;5.82;3.10;;;;;;;;;;6073156;29;20495;-66
2021/11/23 11:00:17;;;;;;;5.23;3.17;;;;;;;;;;6082122;29;20143;-67
2021/11/23 11:03:19;;;;;;;3.55;3.17;;;;;;;;;;6085150;29;20093;-66
2021/11/23 11:06:21;;;;;;;4.70;3.15;;;;;;;;;;6074236;29;20150;-66
2021/11/23 11:09:22;;;;;;;3.85;3.03;;;;;;;;;;6094360;29;20048;-66
2021/11/23 11:12:25;;;;;;;3.78;3.15;;;;;;;;;;6073718;29;20411;-66
2021/11/23 11:15:31;;;;;;;3.88;3.03;;;;;;;;;;6071972;29;20138;-67
2021/11/23 11:18:32;;;;;;;4.13;3.03;;;;;;;;;;6075011;29;20254;-66
2021/11/23 11:21:37;;;;;;;4.63;3.50;;;;;;;;;;6072747;29;20184;-67
2021/11/23 11:24:41;;;;;;;4.22;3.50;;;;;;;;;;6089502;29;20049;-66
2021/11/23 11:27:46;;;;;;;6.20;4.07;;;;;;;;;;6066430;29;20135;-66
2021/11/23 11:30:51;;;;;;;3.95;3.47;;;;;;;;;;6070444;29;22687;-67
2021/11/23 11:34:15;;;;;;;4.32;3.25;;;;;;;;;;6085800;29;20607;-69
2021/11/23 11:37:18;;;;;;;4.80;3.58;;;;;;;;;;6072426;29;20080;-69
2021/11/23 11:40:26;;;;;;;6.78;3.70;;;;;;;;;;6075859;29;20045;-68
2021/11/23 11:43:33;;;;;;;3.58;3.15;;;;;;;;;;6090459;29;20060;-66
2021/11/23 11:46:36;;;;;;;3.70;3.22;;;;;;;;;;6065848;29;20044;-67
2021/11/23 11:49:51;;;;;;;3.92;3.45;;;;;;;;;;6081590;29;20143;-66
2021/11/23 11:53:06;;;;;;;5.32;3.75;;;;;;;;;;6074557;29;20076;-67
2021/11/23 11:56:08;;;;;;;6.28;3.60;;;;;;;;;;6081683;29;20076;-67
2021/11/23 11:59:24;;;;;;;4.40;3.70;;;;;;;;;;6081450;29;20443;-66
2021/11/23 12:02:25;;;;;;;7.50;3.75;;;;;;;;;;6073310;29;20059;-67
2021/11/23 12:05:47;;;;;;;5.20;3.80;;;;;;;;;;6084859;29;20085;-67
2021/11/23 12:08:48;;;;;;;4.60;3.55;;;;;;;;;;6092467;29;20059;-67
2021/11/23 12:11:50;;;;;;;5.43;3.97;;;;;;;;;;6081192;29;20088;-67
2021/11/23 12:15:01;;;;;;;4.57;3.47;;;;;;;;;;6080366;29;20151;-67
2021/11/23 12:18:17;;;;;;;4.65;3.80;;;;;;;;;;6058608;29;20047;-67
2021/11/23 12:21:19;;;;;;;5.10;3.72;;;;;;;;;;6079636;29;20076;-67
2021/11/23 12:24:24;;;;;;;4.65;3.90;;;;;;;;;;6083563;29;20048;-67
2021/11/23 12:27:26;;;;;;;3.92;3.53;;;;;;;;;;6075070;29;20155;-67
2021/11/23 12:30:29;;;;;;;4.90;4.38;;;;;;;;;;6077441;29;20978;-67
2021/11/23 12:33:30;;;;;;;5.37;3.70;;;;;;;;;;6086829;29;20196;-67
2021/11/23 12:36:33;;;;;;;4.43;3.55;;;;;;;;;;6083164;29;20607;-68
2021/11/23 12:39:37;;;;;;;5.20;3.67;;;;;;;;;;6093184;29;21405;-67
2021/11/23 12:42:40;;;;;;;4.95;3.92;;;;;;;;;;6082234;29;20052;-65
2021/11/23 12:45:46;;;;;;;5.00;3.72;;;;;;;;;;6078412;29;20143;-66
2021/11/23 12:48:49;;;;;;;5.90;3.53;;;;;;;;;;6084249;29;20095;-66
2021/11/23 12:51:54;;;;;;;4.15;3.75;;;;;;;;;;6083748;29;20060;-66
2021/11/23 12:54:56;;;;;;;4.72;3.42;;;;;;;;;;6086044;29;20048;-66
2021/11/23 12:57:59;;;;;;;4.72;3.70;;;;;;;;;;6082452;29;20135;-65
2021/11/23 13:01:03;;;;;;;4.38;3.25;;;;;;;;;;6073124;29;20744;-65
2021/11/23 13:04:05;;;;;;;4.38;3.50;;;;;;;;;;6084214;29;20071;-65
2021/11/23 13:07:08;;;;;;;4.72;3.78;;;;;;;;;;6087374;29;20504;-65
2021/11/23 13:10:12;;;;;;;4.90;3.33;;;;;;;;;;6086636;29;20401;-65
2021/11/23 13:13:15;;;;;;;4.80;3.65;;;;;;;;;;6091110;29;20047;-65
2021/11/23 13:16:18;;;;;;;4.90;3.93;;;;;;;;;;6072646;29;20128;-65
2021/11/23 13:19:19;;;;;;;5.33;3.83;;;;;;;;;;6088649;29;20464;-65
2021/11/23 13:22:21;;;;;;;6.20;4.07;;;;;;;;;;6073702;29;20591;-65
2021/11/23 13:25:23;;;;;;;5.90;3.83;;;;;;;;;;6077772;29;20052;-66
2021/11/23 13:28:25;;;;;;;5.18;3.97;;;;;;;;;;6085984;29;20522;-64
2021/11/23 13:31:29;;;;;;;5.25;4.32;;;;;;;;;;6070525;29;20112;-67
2021/11/23 13:34:32;;;;;;;5.63;4.20;;;;;;;;;;6085967;29;20048;-67
2021/11/23 13:37:38;;;;;;;4.78;3.55;;;;;;;;;;6077720;29;20138;-67
2021/11/23 13:40:43;;;;;;;4.95;4.03;;;;;;;;;;6077966;29;20106;-68
2021/11/23 13:43:46;;;;;;;6.13;4.25;;;;;;;;;;6091520;29;20131;-67
2021/11/23 13:46:50;;;;;;;5.13;4.15;;;;;;;;;;6072866;29;20142;-67
2021/11/23 13:49:52;;;;;;;5.90;4.18;;;;;;;;;;6087123;29;20056;-65
2021/11/23 13:52:59;;;;;;;6.25;4.13;;;;;;;;;;6075391;29;20087;-67
2021/11/23 13:56:10;;;;;;;6.07;4.28;;;;;;;;;;6082610;29;20052;-67
2021/11/23 13:59:12;;;;;;;5.13;4.28;;;;;;;;;;6101037;29;20131;-68
2021/11/23 14:02:14;;;;;;;6.60;4.78;;;;;;;;;;6063505;29;20135;-67
2021/11/23 14:05:36;;;;;;;8.23;4.17;;;;;;;;;;6082312;29;20867;-66
2021/11/23 14:08:37;;;;;;;6.25;4.28;;;;;;;;;;6090416;29;20048;-66
2021/11/23 14:11:39;;;;;;;4.88;4.25;;;;;;;;;;6080642;29;20480;-67
2021/11/23 14:14:56;;;;;;;5.28;3.90;;;;;;;;;;6085777;29;20160;-67
2021/11/23 14:18:05;;;;;;;5.13;4.20;;;;;;;;;;6070454;29;20135;-67
2021/11/23 14:21:11;;;;;;;5.95;4.00;;;;;;;;;;6078154;29;20060;-66
2021/11/23 14:24:13;;;;;;;6.40;4.63;;;;;;;;;;6087135;29;20171;-66
2021/11/23 14:27:15;;;;;;;5.60;4.30;;;;;;;;;;6079375;29;20488;-65
2021/11/23 14:30:16;;;;;;;5.40;4.38;;;;;;;;;;6081826;29;20195;-67
2021/11/23 14:33:23;;;;;;;7.18;4.70;;;;;;;;;;6078884;29;20107;-66
2021/11/23 14:36:25;;;;;;;6.82;4.53;;;;;;;;;;6077193;29;20235;-66
2021/11/23 14:39:27;;;;;;;5.45;4.28;;;;;;;;;;6085980;29;20041;-67
2021/11/23 14:42:28;;;;;;;7.50;4.20;;;;;;;;;;6069833;29;20176;-67
2021/11/23 14:45:30;;;;;;;6.38;4.45;;;;;;;;;;6070315;29;20091;-67
2021/11/23 14:48:33;;;;;;;8.52;4.72;;;;;;;;;;6077684;29;20052;-67
2021/11/23 14:51:34;;;;;;;6.60;4.53;;;;;;;;;;6070630;29;20044;-67
2021/11/23 14:54:35;;;;;;;5.57;4.47;;;;;;;;;;6082778;29;21914;-67
2021/11/23 14:57:37;;;;;;;5.25;4.53;;;;;;;;;;6078810;29;20052;-67
2021/11/23 15:00:38;;;;;;;10.05;4.38;;;;;;;;;;6068609;29;20216;-65
2021/11/23 15:03:41;;;;;;;6.95;4.28;;;;;;;;;;6079543;29;20084;-66
2021/11/23 15:06:43;;;;;;;8.43;4.57;;;;;;;;;;6070973;29;20076;-67
2021/11/23 15:09:44;;;;;;;5.97;4.30;;;;;;;;;;6080138;29;20131;-67
2021/11/23 15:12:46;;;;;;;6.65;4.43;;;;;;;;;;6070657;29;20111;-67
2021/11/23 15:15:47;;;;;;;6.60;4.20;;;;;;;;;;6064117;29;20399;-66
2021/11/23 15:18:50;;;;;;;7.38;4.88;;;;;;;;;;6080052;29;20428;-66
2021/11/23 15:21:51;;;;;;;9.35;5.07;;;;;;;;;;6074774;29;20221;-66
2021/11/23 15:24:53;;;;;;;7.05;4.88;;;;;;;;;;6079630;29;20063;-66
2021/11/23 15:27:54;;;;;;;7.72;5.18;;;;;;;;;;6074509;29;20048;-67
2021/11/23 15:30:56;;;;;;;6.95;4.57;;;;;;;;;;6069906;29;20052;-66
2021/11/23 15:33:58;;;;;;;6.88;4.45;;;;;;;;;;6078691;29;20520;-66
2021/11/23 15:37:00;;;;;;;9.65;4.38;;;;;;;;;;6071163;29;21350;-66
2021/11/23 15:40:02;;;;;;;7.72;4.20;;;;;;;;;;6083578;29;20044;-66
2021/11/23 15:43:04;;;;;;;9.60;3.88;;;;;;;;;;6073665;29;20070;-66
2021/11/23 15:46:05;;;;;;;8.13;4.13;;;;;;;;;;6066529;29;20159;-66
2021/11/23 15:49:08;;;;;;;7.15;4.05;;;;;;;;;;6079817;29;20207;-66
2021/11/23 15:52:09;;;;;;;9.35;4.15;;;;;;;;;;6069947;29;20408;-66
2021/11/23 15:55:11;;;;;;;10.55;4.38;;;;;;;;;;6074318;29;20074;-66
2021/11/23 15:58:12;;;;;;;7.00;4.30;;;;;;;;;;6081878;29;20135;-65
2021/11/23 16:01:14;;;;;;;7.38;4.00;;;;;;;;;;6072809;29;20196;-66
2021/11/23 16:04:16;;;;;;;6.15;4.30;;;;;;;;;;6076613;29;20052;-67
2021/11/23 16:07:18;;;;;;;6.07;4.00;;;;;;;;;;6065296;29;20056;-66
2021/11/23 16:10:20;;;;;;;5.85;3.80;;;;;;;;;;6066470;29;20548;-67
2021/11/23 16:13:21;;;;;;;6.57;4.40;;;;;;;;;;6075589;29;20135;-67
2021/11/23 16:16:23;;;;;;;7.32;4.57;;;;;;;;;;6066846;29;20063;-67
2021/11/23 16:19:26;;;;;;;5.55;3.80;;;;;;;;;;6083166;29;20052;-66
2021/11/23 16:22:27;;;;;;;7.93;4.45;;;;;;;;;;6065768;29;20720;-66
2021/11/23 16:25:29;;;;;;;6.38;4.15;;;;;;;;;;6074659;29;20119;-66
2021/11/23 16:28:30;;;;;;;8.93;4.20;;;;;;;;;;6091107;29;20127;-66
2021/11/23 16:31:32;;;;;;;7.53;3.80;;;;;;;;;;6066323;29;20048;-65
2021/11/23 16:34:36;;;;;;;6.32;4.05;;;;;;;;;;6083017;29;20139;-65
2021/11/23 16:37:37;;;;;;;9.93;4.28;;;;;;;;;;6075289;29;20059;-67
2021/11/23 16:40:39;;;;;;;6.10;4.20;;;;;;;;;;6072298;29;20048;-67
2021/11/23 16:43:40;;;;;;;6.22;3.95;;;;;;;;;;6081288;29;20188;-67
2021/11/23 16:46:42;;;;;;;7.97;4.15;;;;;;;;;;6072299;29;20135;-67
2021/11/23 16:49:45;;;;;;;7.78;4.47;;;;;;;;;;6084692;29;20056;-66
2021/11/23 16:52:46;;;;;;;7.05;4.65;;;;;;;;;;6077875;29;20066;-66
2021/11/23 16:55:48;;;;;;;7.22;4.15;;;;;;;;;;6081004;29;20051;-66
2021/11/23 16:58:49;;;;;;;6.90;4.38;;;;;;;;;;6094178;29;20416;-66
2021/11/23 17:01:50;;;;;;;6.20;4.30;;;;;;;;;;6066886;29;21017;-66
2021/11/23 17:04:53;;;;;;;11.35;4.43;;;;;;;;;;6076636;29;20175;-66
2021/11/23 17:07:54;;;;;;;6.47;4.32;;;;;;;;;;6068841;29;20192;-67
2021/11/23 17:10:56;;;;;;;7.25;4.65;;;;;;;;;;6072449;29;20183;-66
2021/11/23 17:13:57;;;;;;;7.15;4.90;;;;;;;;;;6080258;29;20110;-65
2021/11/23 17:16:59;;;;;;;6.97;4.40;;;;;;;;;;6067820;29;20191;-66
2021/11/23 17:20:02;;;;;;;9.23;5.00;;;;;;;;;;6083271;29;20054;-66
2021/11/23 17:23:06;;;;;;;6.28;4.57;;;;;;;;;;6075303;29;20052;-66
2021/11/23 17:26:07;;;;;;;;;;;;;;;;;;6075026;29;20592;-66
2021/11/23 17:29:09;;;;;;;7.57;5.00;;;;;;;;;;6089046;29;19978;-66
2021/11/23 17:32:11;;;;;;;10.15;4.53;;;;;;;;;;6069432;29;20068;-66
2021/11/23 17:35:14;;;;;;;7.13;4.57;;;;;;;;;;6068806;29;20690;-66
2021/11/23 17:38:15;;;;;;;9.60;5.20;;;;;;;;;;6089521;29;20040;-66
2021/11/23 17:41:17;;;;;;;8.52;5.20;;;;;;;;;;6086107;29;20146;-66
2021/11/23 17:44:18;;;;;;;9.00;5.43;;;;;;;;;;6103687;29;20047;-66
2021/11/23 17:47:29;;;;;;;9.30;5.28;;;;;;;;;;6087203;29;20143;-66
2021/11/23 17:50:32;;;;;;;12.45;4.93;;;;;;;;;;6090254;29;20244;-67
2021/11/23 17:53:33;;;;;;;7.28;5.03;;;;;;;;;;6098837;29;20052;-66
2021/11/23 17:56:35;;;;;;;12.95;5.45;;;;;;;;;;6090898;29;20084;-66
2021/11/23 17:59:40;;;;;;;7.80;5.00;;;;;;;;;;6106886;29;20527;-66
2021/11/23 18:02:42;;;;;;;8.20;4.97;;;;;;;;;;6084754;29;20106;-66